createdAt,value
2022-10-04T00:02:17.061Z,10.80
2022-10-04T00:06:25.115Z,10.80
2022-10-04T00:10:32.595Z,10.90
2022-10-04T00:14:37.506Z,10.90
2022-10-04T00:18:41.132Z,10.90
2022-10-04T00:22:46.091Z,10.90
2022-10-04T00:26:50.994Z,10.90
2022-10-04T00:31:13.152Z,10.90
2022-10-04T00:35:30.603Z,10.80
2022-10-04T00:39:35.484Z,10.80
2022-10-04T00:43:46.764Z,10.80
2022-10-04T00:47:58.034Z,10.70
2022-10-04T00:52:02.822Z,10.50
2022-10-04T00:56:08.458Z,10.50
2022-10-04T01:00:16.008Z,10.40
2022-10-04T01:04:45.029Z,10.40
2022-10-04T01:08:52.829Z,10.50
2022-10-04T01:13:01.064Z,10.30
2022-10-04T01:17:03.444Z,10.20
2022-10-04T01:21:19.982Z,10.20
2022-10-04T01:25:44.165Z,10.10
2022-10-04T01:29:45.258Z,10.20
2022-10-04T01:33:47.382Z,10.20
2022-10-04T01:37:48.567Z,10.20
2022-10-04T01:42:10.330Z,10.20
2022-10-04T01:46:18.386Z,10.20
2022-10-04T01:50:26.113Z,10.00
2022-10-04T01:54:42.847Z,10.10
2022-10-04T01:58:54.450Z,10.20
2022-10-04T02:03:02.488Z,10.10
2022-10-04T02:07:05.862Z,10.10
2022-10-04T02:11:07.379Z,10.10
2022-10-04T02:15:11.386Z,9.90
2022-10-04T02:19:14.384Z,9.70
2022-10-04T02:23:19.070Z,9.70
2022-10-04T02:27:31.027Z,9.60
2022-10-04T02:31:51.045Z,9.50
2022-10-04T02:35:52.353Z,9.50
2022-10-04T02:39:57.340Z,9.60
2022-10-04T02:44:27.027Z,9.60
2022-10-04T02:48:46.769Z,9.60
2022-10-04T02:52:51.763Z,9.50
2022-10-04T02:56:54.829Z,9.50
2022-10-04T03:00:58.969Z,9.60
2022-10-04T03:05:07.160Z,9.60
2022-10-04T03:09:08.791Z,9.50
2022-10-04T03:13:12.069Z,9.50
2022-10-04T03:17:15.513Z,9.50
2022-10-04T03:21:20.170Z,9.40
2022-10-04T03:25:30.694Z,9.30
2022-10-04T03:29:33.478Z,9.10
2022-10-04T03:33:34.852Z,9.10
2022-10-04T03:37:37.429Z,8.90
2022-10-04T03:41:41.752Z,8.80
2022-10-04T03:45:43.573Z,9.00
2022-10-04T03:49:50.640Z,9.20
2022-10-04T03:53:55.998Z,9.20
2022-10-04T03:57:58.787Z,9.30
2022-10-04T04:02:26.503Z,9.40
2022-10-04T04:06:46.865Z,9.10
2022-10-04T04:10:51.763Z,9.40
2022-10-04T04:14:53.649Z,9.40
2022-10-04T04:18:58.571Z,9.40
2022-10-04T04:23:03.321Z,9.30
2022-10-04T04:27:04.720Z,9.20
2022-10-04T04:31:09.690Z,9.20
2022-10-04T04:35:26.857Z,9.20
2022-10-04T04:39:43.929Z,9.20
2022-10-04T04:43:45.121Z,9.20
2022-10-04T04:47:49.722Z,9.20
2022-10-04T04:51:52.025Z,9.20
2022-10-04T04:56:03.759Z,9.20
2022-10-04T05:00:03.397Z,9.20
2022-10-04T05:04:07.784Z,9.20
2022-10-04T05:08:15.821Z,9.20
2022-10-04T05:12:20.807Z,9.20
2022-10-04T05:16:28.345Z,9.30
2022-10-04T05:20:30.889Z,9.30
2022-10-04T05:24:39.945Z,9.30
2022-10-04T05:28:41.404Z,9.20
2022-10-04T05:33:04.671Z,9.20
2022-10-04T05:37:24.884Z,9.30
2022-10-04T05:41:36.323Z,9.40
2022-10-04T05:45:37.702Z,9.20
2022-10-04T05:49:45.977Z,8.80
2022-10-04T05:53:49.303Z,8.90
2022-10-04T05:58:20.848Z,9.10
2022-10-04T06:02:32.162Z,9.30
2022-10-04T06:06:49.341Z,9.20
2022-10-04T06:11:03.726Z,9.40
2022-10-04T06:15:43.016Z,9.40
2022-10-04T06:20:20.173Z,9.50
2022-10-04T06:24:27.120Z,9.50
2022-10-04T06:28:35.320Z,9.50
2022-10-04T06:32:52.646Z,9.70
2022-10-04T06:37:17.635Z,9.80
2022-10-04T06:41:46.708Z,9.90
2022-10-04T06:46:04.120Z,10.00
2022-10-04T06:50:33.120Z,10.10
2022-10-04T06:55:01.804Z,10.30
2022-10-04T06:59:22.841Z,10.50
2022-10-04T07:03:27.818Z,10.50
2022-10-04T07:07:35.301Z,10.60
2022-10-04T07:11:46.799Z,10.70
2022-10-04T07:16:07.055Z,10.90
2022-10-04T07:20:30.457Z,11.20
2022-10-04T07:24:50.642Z,11.30
2022-10-04T07:29:14.043Z,11.30
2022-10-04T07:33:19.021Z,11.40
2022-10-04T07:37:21.627Z,11.10
2022-10-04T07:41:26.636Z,11.30
2022-10-04T07:45:34.537Z,11.60
2022-10-04T07:49:39.801Z,11.70
2022-10-04T07:53:52.658Z,11.90
2022-10-04T07:58:09.707Z,12.20
2022-10-04T08:02:35.527Z,12.20
2022-10-04T08:06:41.090Z,12.50
2022-10-04T08:10:58.704Z,12.80
2022-10-04T08:15:15.502Z,12.90
2022-10-04T08:19:29.250Z,12.90
2022-10-04T08:23:44.141Z,13.00
2022-10-04T08:28:16.805Z,13.40
2022-10-04T08:32:54.021Z,13.50
2022-10-04T08:37:02.472Z,13.60
2022-10-04T08:41:25.895Z,13.80
2022-10-04T08:45:47.766Z,14.20
2022-10-04T08:50:22.050Z,14.70
2022-10-04T08:54:55.075Z,14.90
2022-10-04T08:59:24.747Z,15.20
2022-10-04T09:03:43.160Z,15.40
2022-10-04T09:08:07.658Z,15.60
2022-10-04T09:12:29.380Z,15.80
2022-10-04T09:16:46.480Z,15.90
2022-10-04T09:21:00.823Z,16.40
2022-10-04T09:25:32.914Z,16.80
2022-10-04T09:29:52.717Z,17.30
2022-10-04T09:34:19.576Z,17.60
2022-10-04T09:38:39.987Z,17.40
2022-10-04T09:43:09.572Z,17.70
2022-10-04T09:47:14.582Z,17.90
2022-10-04T09:51:39.414Z,18.00
2022-10-04T09:56:03.994Z,18.10
2022-10-04T10:00:36.825Z,17.90
2022-10-04T10:05:07.539Z,18.20
2022-10-04T10:09:21.165Z,18.70
2022-10-04T10:13:42.897Z,19.50
2022-10-04T10:17:57.137Z,19.80
2022-10-04T10:22:22.345Z,19.60
2022-10-04T10:26:46.252Z,19.30
2022-10-04T10:31:05.110Z,19.90
2022-10-04T10:35:27.258Z,20.00
2022-10-04T10:39:47.871Z,20.30
2022-10-04T10:44:07.216Z,20.10
2022-10-04T10:48:18.660Z,19.50
2022-10-04T10:52:41.764Z,19.60
2022-10-04T10:57:08.266Z,19.40
2022-10-04T11:01:21.991Z,19.30
2022-10-04T11:05:29.606Z,19.50
2022-10-04T11:09:40.562Z,19.50
2022-10-04T11:14:20.896Z,19.70
2022-10-04T11:19:00.895Z,19.70
2022-10-04T11:23:31.034Z,19.80
2022-10-04T11:27:48.978Z,20.40
2022-10-04T11:32:18.243Z,20.60
2022-10-04T11:36:49.448Z,20.70
2022-10-04T11:40:57.477Z,20.90
2022-10-04T11:45:18.579Z,20.90
2022-10-04T11:49:38.610Z,21.30
2022-10-04T11:54:09.895Z,21.70
2022-10-04T11:58:31.596Z,21.80
2022-10-04T12:02:43.385Z,22.00
2022-10-04T12:07:22.310Z,22.40
2022-10-04T12:12:06.070Z,22.20
2022-10-04T12:16:29.672Z,22.50
2022-10-04T12:20:43.665Z,22.60
2022-10-04T12:24:58.762Z,22.50
2022-10-04T12:29:21.896Z,21.50
2022-10-04T12:33:33.817Z,21.20
2022-10-04T12:37:56.008Z,21.60
2022-10-04T12:42:10.952Z,21.90
2022-10-04T12:46:31.289Z,22.10
2022-10-04T12:50:45.389Z,22.20
2022-10-04T12:55:11.378Z,21.90
2022-10-04T12:59:34.035Z,22.60
2022-10-04T13:03:56.358Z,22.60
2022-10-04T13:08:19.753Z,22.80
2022-10-04T13:12:37.757Z,21.80
2022-10-04T13:21:05.193Z,22.30
2022-10-04T13:25:10.569Z,22.20
2022-10-04T13:29:18.607Z,22.10
2022-10-04T13:33:26.551Z,22.60
2022-10-04T13:37:35.171Z,22.30
2022-10-04T13:41:53.385Z,22.20
2022-10-04T13:46:13.886Z,22.50
2022-10-04T13:50:21.835Z,22.20
2022-10-04T13:54:51.325Z,22.50
2022-10-04T13:59:02.506Z,22.50
2022-10-04T14:03:10.604Z,22.30
2022-10-04T14:07:24.866Z,22.10
2022-10-04T14:11:48.388Z,22.10
2022-10-04T14:16:14.755Z,22.10
2022-10-04T14:20:49.028Z,21.40
2022-10-04T14:25:17.554Z,21.80
2022-10-04T14:29:46.493Z,21.60
2022-10-04T14:34:06.530Z,21.80
2022-10-04T14:38:31.078Z,21.70
2022-10-04T14:42:53.690Z,21.80
2022-10-04T14:47:16.370Z,21.50
2022-10-04T14:51:42.400Z,21.20
2022-10-04T14:55:56.909Z,21.00
2022-10-04T15:00:08.071Z,21.40
2022-10-04T15:04:28.030Z,21.20
2022-10-04T15:08:38.919Z,21.10
2022-10-04T15:13:12.382Z,21.30
2022-10-04T15:17:12.749Z,21.20
2022-10-04T15:21:41.888Z,21.00
2022-10-04T15:25:47.512Z,21.00
2022-10-04T15:30:12.294Z,21.10
2022-10-04T15:34:43.559Z,21.00
2022-10-04T15:38:58.518Z,21.10
2022-10-04T15:43:12.611Z,20.90
2022-10-04T15:47:44.935Z,21.00
2022-10-04T15:52:00.696Z,21.00
2022-10-04T15:56:08.446Z,20.80
2022-10-04T16:00:22.223Z,20.60
2022-10-04T16:05:02.812Z,20.30
2022-10-04T16:09:17.164Z,20.40
2022-10-04T16:13:37.259Z,20.50
2022-10-04T16:17:55.539Z,20.60
2022-10-04T16:22:21.806Z,20.40
2022-10-04T16:26:26.714Z,20.50
2022-10-04T16:30:40.806Z,20.40
2022-10-04T16:34:51.867Z,20.50
2022-10-04T16:39:15.401Z,20.40
2022-10-04T16:43:20.551Z,20.40
2022-10-04T16:47:37.026Z,20.50
2022-10-04T16:51:44.949Z,20.00
2022-10-04T16:55:59.499Z,20.10
2022-10-04T17:00:21.619Z,20.20
2022-10-04T17:04:40.718Z,20.10
2022-10-04T17:08:49.327Z,19.60
2022-10-04T17:13:25.475Z,19.20
2022-10-04T17:18:05.454Z,18.60
2022-10-04T17:22:16.636Z,18.30
2022-10-04T17:26:30.657Z,18.00
2022-10-04T17:30:48.104Z,17.90
2022-10-04T17:35:19.132Z,17.70
2022-10-04T17:39:39.553Z,17.60
2022-10-04T17:43:55.127Z,17.40
2022-10-04T17:48:24.929Z,17.40
2022-10-04T17:52:52.690Z,17.30
2022-10-04T17:57:04.422Z,17.20
2022-10-04T18:01:31.113Z,17.10
2022-10-04T18:05:54.376Z,16.90
2022-10-04T18:09:59.349Z,16.70
2022-10-04T18:14:07.394Z,16.70
2022-10-04T18:18:18.393Z,16.60
2022-10-04T18:22:24.606Z,16.40
2022-10-04T18:26:29.209Z,16.30
2022-10-04T18:30:30.698Z,16.20
2022-10-04T18:34:31.833Z,16.10
2022-10-04T18:38:34.402Z,16.10
2022-10-04T18:42:37.848Z,16.00
2022-10-04T18:46:43.099Z,16.10
2022-10-04T18:50:46.315Z,16.00
2022-10-04T18:54:56.873Z,15.90
2022-10-04T18:59:31.614Z,15.80
2022-10-04T19:03:42.612Z,15.60
2022-10-04T19:08:22.847Z,15.50
2022-10-04T19:12:36.980Z,15.50
2022-10-04T19:16:51.353Z,15.30
2022-10-04T19:20:56.342Z,15.20
2022-10-04T19:25:19.994Z,15.20
2022-10-04T19:29:33.853Z,15.20
2022-10-04T19:33:44.633Z,15.00
2022-10-04T19:38:25.010Z,15.00
2022-10-04T19:42:50.786Z,15.00
2022-10-04T19:47:17.304Z,14.80
2022-10-04T19:51:37.698Z,14.80
2022-10-04T19:56:00.235Z,14.70
2022-10-04T20:04:14.660Z,14.60
2022-10-04T20:08:19.737Z,14.60
2022-10-04T20:12:32.137Z,14.50
2022-10-04T20:16:50.182Z,14.50
2022-10-04T20:20:59.362Z,14.40
2022-10-04T20:25:00.646Z,14.40
2022-10-04T20:29:02.435Z,14.30
2022-10-04T20:33:03.637Z,14.20
2022-10-04T20:37:07.635Z,14.20
2022-10-04T20:41:32.840Z,14.10
2022-10-04T20:45:37.883Z,14.20
2022-10-04T20:49:40.918Z,14.10
2022-10-04T20:53:44.722Z,14.00
2022-10-04T20:57:45.928Z,14.00
2022-10-04T21:02:03.599Z,13.90
2022-10-04T21:06:08.956Z,13.90
2022-10-04T21:10:19.317Z,13.80
2022-10-04T21:14:26.065Z,13.70
2022-10-04T21:18:27.254Z,13.60
2022-10-04T21:22:31.547Z,13.60
2022-10-04T21:26:34.622Z,13.60
2022-10-04T21:30:35.822Z,13.40
2022-10-04T21:34:53.813Z,13.50
2022-10-04T21:38:39.906Z,13.40
2022-10-04T21:42:41.094Z,13.50
2022-10-04T21:46:42.306Z,13.40
2022-10-04T21:50:43.865Z,13.50
2022-10-04T21:54:45.265Z,13.50
2022-10-04T21:58:46.468Z,13.50
2022-10-04T22:02:47.890Z,13.50
2022-10-04T22:06:49.631Z,13.50
2022-10-04T22:10:55.440Z,13.50
2022-10-04T22:14:53.877Z,13.40
2022-10-04T22:18:55.165Z,13.30
2022-10-04T22:22:57.974Z,13.20
2022-10-04T22:27:00.007Z,13.10
2022-10-04T22:31:01.875Z,13.00
2022-10-04T22:35:15.850Z,13.00
2022-10-04T22:39:19.176Z,13.00
2022-10-04T22:43:20.709Z,13.00
2022-10-04T22:47:23.701Z,12.90
2022-10-04T22:51:31.307Z,12.90
2022-10-04T22:55:33.794Z,12.90
2022-10-04T22:59:41.199Z,13.00
2022-10-04T23:03:48.083Z,12.90
2022-10-04T23:07:49.327Z,12.90
2022-10-04T23:11:50.507Z,12.80
2022-10-04T23:15:54.049Z,12.70
2022-10-04T23:20:02.999Z,12.70
2022-10-04T23:24:19.849Z,12.70
2022-10-04T23:28:21.804Z,12.70
2022-10-04T23:32:25.667Z,12.70
2022-10-04T23:36:27.944Z,12.70
2022-10-04T23:40:29.290Z,12.60
2022-10-04T23:44:36.617Z,12.60
2022-10-04T23:48:39.669Z,12.60
2022-10-04T23:52:41.029Z,12.50
2022-10-04T23:56:45.030Z,12.40
